Wetterdaten: Woche 03.07.06 - 09.07.06 (KW27)
Datum Zeit Temperatur Luftfeuchte Luftdruck Niederschlag Wind Richtung Sonnenschein UV-Strahlung Solar Taupunkt Windchill Windben
03.07.2006 00:00 18.5 C 62 % 1017.1 hPa 0.0 l/m 1.3 km/h (1 Bft) NW 0.00 h 0.0 UV-I 0 W/m 11.0 C 18.5 C 1.3 km/h (1 Bft)
03.07.2006 01:00 17.6 C 68 % 1017.2 hPa 0.0 l/m 0.1 km/h (0 Bft) N 0.00 h 0.0 UV-I 0 W/m 11.5 C 17.6 C 0.1 km/h (0 Bft)
03.07.2006 02:00 17.0 C 71 % 1017.3 hPa 0.0 l/m 1.3 km/h (1 Bft) O 0.00 h 0.0 UV-I 0 W/m 11.8 C 17.0 C 1.3 km/h (1 Bft)
03.07.2006 03:00 16.0 C 76 % 1016.8 hPa 0.0 l/m 0.1 km/h (0 Bft) N 0.00 h 0.0 UV-I 0 W/m 11.8 C 16.0 C 0.1 km/h (0 Bft)
03.07.2006 04:00 15.2 C 81 % 1016.5 hPa 0.0 l/m 0.0 km/h (0 Bft) N 0.00 h 0.0 UV-I 0 W/m 12.0 C 15.2 C 0.0 km/h (0 Bft)
03.07.2006 05:00 14.0 C 88 % 1016.6 hPa 0.0 l/m 1.2 km/h (1 Bft) O-SO 0.10 h 0.0 UV-I 13 W/m 12.1 C 14.0 C 1.2 km/h (1 Bft)
03.07.2006 06:00 14.1 C 85 % 1016.6 hPa 0.0 l/m 0.0 km/h (0 Bft) N 0.13 h 0.0 UV-I 55 W/m 11.7 C 14.1 C 0.0 km/h (0 Bft)
03.07.2006 07:00 15.6 C 80 % 1016.4 hPa 0.0 l/m 0.2 km/h (0 Bft) O-SO 0.90 h 0.0 UV-I 229 W/m 12.1 C 15.6 C 0.2 km/h (0 Bft)
03.07.2006 08:00 17.8 C 71 % 1016.1 hPa 0.0 l/m 6.4 km/h (2 Bft) NO 1.00 h 0.0 UV-I 384 W/m 12.4 C 17.8 C 6.4 km/h (2 Bft)
03.07.2006 09:00 19.6 C 67 % 1015.9 hPa 0.0 l/m 4.5 km/h (1 Bft) O-SO 1.00 h 0.0 UV-I 522 W/m 13.3 C 19.6 C 4.5 km/h (1 Bft)
03.07.2006 10:00 21.8 C 62 % 1015.6 hPa 0.0 l/m 8.9 km/h (2 Bft) O-SO 1.00 h 0.0 UV-I 640 W/m 14.0 C 21.8 C 8.9 km/h (2 Bft)
03.07.2006 11:00 23.8 C 54 % 1014.6 hPa 0.0 l/m 10.2 km/h (2 Bft) O-SO 1.00 h 0.0 UV-I 727 W/m 14.0 C 23.8 C 10.2 km/h (2 Bft)
03.07.2006 12:00 25.4 C 48 % 1014.1 hPa 0.0 l/m 6.4 km/h (2 Bft) O 1.00 h 0.0 UV-I 771 W/m 13.7 C 25.4 C 6.4 km/h (2 Bft)
03.07.2006 13:00 26.8 C 47 % 1013.7 hPa 0.0 l/m 7.0 km/h (2 Bft) SO 1.00 h 0.0 UV-I 801 W/m 14.7 C 26.8 C 7.0 km/h (2 Bft)
03.07.2006 14:00 28.3 C 43 % 1012.7 hPa 0.0 l/m 3.9 km/h (1 Bft) NO 1.00 h 0.0 UV-I 789 W/m 14.4 C 28.3 C 3.9 km/h (1 Bft)
03.07.2006 15:00 29.6 C 38 % 1012.6 hPa 0.0 l/m 7.5 km/h (2 Bft) W 1.00 h 0.0 UV-I 732 W/m 13.7 C 29.6 C 7.5 km/h (2 Bft)
03.07.2006 16:00 30.7 C 36 % 1012.4 hPa 0.0 l/m 13.2 km/h (3 Bft) W-NW 1.00 h 0.0 UV-I 635 W/m 13.8 C 30.7 C 13.2 km/h (3 Bft)
03.07.2006 17:00 30.5 C 37 % 1012.0 hPa 0.0 l/m 16.1 km/h (3 Bft) W-NW 1.00 h 0.0 UV-I 518 W/m 14.0 C 30.5 C 16.1 km/h (3 Bft)
03.07.2006 18:00 30.6 C 35 % 1011.4 hPa 0.0 l/m 12.9 km/h (3 Bft) W 1.00 h 0.0 UV-I 402 W/m 13.3 C 30.6 C 12.9 km/h (3 Bft)
03.07.2006 19:00 30.0 C 35 % 1011.5 hPa 0.0 l/m 7.5 km/h (2 Bft) W 1.00 h 0.0 UV-I 265 W/m 12.9 C 30.0 C 7.5 km/h (2 Bft)
03.07.2006 20:00 28.3 C 40 % 1011.7 hPa 0.0 l/m 2.0 km/h (1 Bft) W 0.87 h 0.0 UV-I 105 W/m 13.3 C 28.3 C 2.0 km/h (1 Bft)
03.07.2006 21:00 25.1 C 52 % 1012.8 hPa 0.0 l/m 6.9 km/h (2 Bft) O-SO 0.27 h 0.0 UV-I 18 W/m 14.5 C 25.1 C 6.9 km/h (2 Bft)
03.07.2006 22:00 22.6 C 63 % 1013.4 hPa 0.0 l/m 3.9 km/h (1 Bft) O-SO 0.00 h 0.0 UV-I 0 W/m 15.2 C 22.6 C 3.9 km/h (1 Bft)
03.07.2006 23:00 20.8 C 70 % 1014.6 hPa 0.0 l/m 1.1 km/h (1 Bft) O 0.00 h 0.0 UV-I 0 W/m 15.2 C 20.8 C 1.1 km/h (1 Bft)
04.07.2006 00:00 19.7 C 76 % 1014.9 hPa 0.0 l/m 1.0 km/h (0 Bft) O-SO 0.00 h 0.0 UV-I 0 W/m 15.3 C 19.7 C 1.0 km/h (0 Bft)
04.07.2006 01:00 18.9 C 80 % 1014.9 hPa 0.0 l/m 1.7 km/h (1 Bft) O-SO 0.00 h 0.0 UV-I 0 W/m 15.4 C 18.9 C 1.7 km/h (1 Bft)
04.07.2006 02:00 18.2 C 83 % 1015.1 hPa 0.0 l/m 0.5 km/h (0 Bft) O 0.00 h 0.0 UV-I 0 W/m 15.2 C 18.2 C 0.5 km/h (0 Bft)
04.07.2006 03:00 17.5 C 87 % 1015.1 hPa 0.0 l/m 1.3 km/h (1 Bft) O-SO 0.00 h 0.0 UV-I 0 W/m 15.3 C 17.5 C 1.3 km/h (1 Bft)
04.07.2006 04:00 16.9 C 90 % 1016.1 hPa 0.0 l/m 2.1 km/h (1 Bft) O 0.00 h 0.0 UV-I 0 W/m 15.3 C 16.9 C 2.1 km/h (1 Bft)
04.07.2006 05:00 16.4 C 91 % 1016.3 hPa 0.0 l/m 0.5 km/h (0 Bft) O 0.07 h 0.0 UV-I 13 W/m 14.9 C 16.4 C 0.5 km/h (0 Bft)
04.07.2006 06:00 16.3 C 89 % 1016.4 hPa 0.0 l/m 0.0 km/h (0 Bft) N 0.10 h 0.0 UV-I 54 W/m 14.5 C 16.3 C 0.0 km/h (0 Bft)
04.07.2006 07:00 17.5 C 85 % 1016.9 hPa 0.0 l/m 0.0 km/h (0 Bft) N 1.00 h 0.0 UV-I 213 W/m 15.0 C 17.5 C 0.0 km/h (0 Bft)
04.07.2006 08:00 19.2 C 77 % 1017.0 hPa 0.0 l/m 0.0 km/h (0 Bft) N 1.00 h 0.0 UV-I 364 W/m 15.0 C 19.2 C 0.0 km/h (0 Bft)
04.07.2006 09:00 21.9 C 66 % 1016.3 hPa 0.0 l/m 2.4 km/h (1 Bft) W 1.00 h 0.0 UV-I 486 W/m 15.2 C 21.9 C 2.4 km/h (1 Bft)
04.07.2006 10:00 24.8 C 57 % 1015.7 hPa 0.0 l/m 0.8 km/h (0 Bft) SO 1.00 h 0.0 UV-I 624 W/m 15.7 C 24.8 C 0.8 km/h (0 Bft)
04.07.2006 11:00 26.9 C 52 % 1015.0 hPa 0.0 l/m 3.3 km/h (1 Bft) W-SW 1.00 h 0.0 UV-I 721 W/m 16.1 C 26.9 C 3.3 km/h (1 Bft)
04.07.2006 12:00 28.9 C 42 % 1014.7 hPa 0.0 l/m 3.4 km/h (1 Bft) SO 1.00 h 0.0 UV-I 782 W/m 14.8 C 28.9 C 3.4 km/h (1 Bft)
04.07.2006 13:00 30.5 C 34 % 1014.3 hPa 0.0 l/m 13.4 km/h (3 Bft) W 1.00 h 0.0 UV-I 802 W/m 12.9 C 30.5 C 13.4 km/h (3 Bft)
04.07.2006 14:00 31.4 C 25 % 1013.4 hPa 0.0 l/m 15.8 km/h (3 Bft) W-NW 1.00 h 0.0 UV-I 785 W/m 8.8 C 31.4 C 15.8 km/h (3 Bft)
04.07.2006 15:00 32.5 C 20 % 1013.3 hPa 0.0 l/m 14.4 km/h (3 Bft) W 1.00 h 0.0 UV-I 728 W/m 6.6 C 32.5 C 14.4 km/h (3 Bft)
04.07.2006 16:00 33.0 C 21 % 1013.2 hPa 0.0 l/m 10.7 km/h (2 Bft) W 1.00 h 0.0 UV-I 634 W/m 7.4 C 33.0 C 10.7 km/h (2 Bft)
04.07.2006 17:00 33.4 C 20 % 1012.5 hPa 0.0 l/m 8.9 km/h (2 Bft) W 1.00 h 0.0 UV-I 515 W/m 7.6 C 33.4 C 8.9 km/h (2 Bft)
04.07.2006 18:00 32.9 C 27 % 1012.2 hPa 0.0 l/m 5.3 km/h (1 Bft) W 0.93 h 0.0 UV-I 326 W/m 11.2 C 32.9 C 5.3 km/h (1 Bft)
04.07.2006 19:00 31.8 C 34 % 1012.3 hPa 0.0 l/m 4.4 km/h (1 Bft) W 0.97 h 0.0 UV-I 179 W/m 13.7 C 31.8 C 4.4 km/h (1 Bft)
04.07.2006 20:00 29.4 C 41 % 1012.6 hPa 0.0 l/m 3.2 km/h (1 Bft) O 0.63 h 0.0 UV-I 80 W/m 14.8 C 29.4 C 3.2 km/h (1 Bft)
04.07.2006 21:00 25.4 C 57 % 1013.1 hPa 0.0 l/m 6.3 km/h (2 Bft) O-SO 0.03 h 0.0 UV-I 11 W/m 16.2 C 25.4 C 6.3 km/h (2 Bft)
04.07.2006 22:00 22.8 C 66 % 1013.7 hPa 0.0 l/m 3.5 km/h (1 Bft) O-SO 0.00 h 0.0 UV-I 0 W/m 16.1 C 22.8 C 3.5 km/h (1 Bft)
04.07.2006 23:00 21.5 C 70 % 1014.6 hPa 0.0 l/m 1.9 km/h (1 Bft) SO 0.00 h 0.0 UV-I 0 W/m 15.8 C 21.5 C 1.9 km/h (1 Bft)
05.07.2006 00:00 20.3 C 76 % 1014.2 hPa 0.0 l/m 4.5 km/h (1 Bft) O-SO 0.00 h 0.0 UV-I 0 W/m 15.8 C 20.3 C 4.5 km/h (1 Bft)
05.07.2006 01:00 19.6 C 78 % 1014.5 hPa 0.0 l/m 1.3 km/h (1 Bft) O-SO 0.00 h 0.0 UV-I 0 W/m 15.7 C 19.6 C 1.3 km/h (1 Bft)
05.07.2006 02:00 18.7 C 82 % 1015.0 hPa 0.0 l/m 1.2 km/h (1 Bft) SO 0.00 h 0.0 UV-I 0 W/m 15.6 C 18.7 C 1.2 km/h (1 Bft)
05.07.2006 03:00 17.9 C 84 % 1015.1 hPa 0.0 l/m 0.4 km/h (0 Bft) O-SO 0.00 h 0.0 UV-I 0 W/m 15.2 C 17.9 C 0.4 km/h (0 Bft)
05.07.2006 04:00 17.5 C 88 % 1015.1 hPa 0.0 l/m 1.7 km/h (1 Bft) SO 0.00 h 0.0 UV-I 0 W/m 15.3 C 17.5 C 1.7 km/h (1 Bft)
05.07.2006 05:00 17.0 C 90 % 1015.7 hPa 0.0 l/m 2.7 km/h (1 Bft) O-SO 0.20 h 0.0 UV-I 16 W/m 15.3 C 17.0 C 2.7 km/h (1 Bft)
05.07.2006 06:00 17.6 C 84 % 1016.1 hPa 0.0 l/m 1.9 km/h (1 Bft) O 0.33 h 0.0 UV-I 47 W/m 14.8 C 17.6 C 1.9 km/h (1 Bft)
05.07.2006 07:00 18.6 C 80 % 1016.9 hPa 0.0 l/m 1.3 km/h (1 Bft) W 0.00 h 0.0 UV-I 84 W/m 15.1 C 18.6 C 1.3 km/h (1 Bft)
05.07.2006 08:00 19.7 C 76 % 1017.2 hPa 0.0 l/m 7.0 km/h (2 Bft) O-SO 0.03 h 0.0 UV-I 137 W/m 15.2 C 19.7 C 7.0 km/h (2 Bft)
05.07.2006 09:00 21.3 C 68 % 1017.8 hPa 0.0 l/m 3.4 km/h (1 Bft) S-SO 0.07 h 0.0 UV-I 121 W/m 15.2 C 21.3 C 3.4 km/h (1 Bft)
05.07.2006 10:00 23.7 C 60 % 1017.5 hPa 0.0 l/m 4.5 km/h (1 Bft) S-SO 0.77 h 0.0 UV-I 479 W/m 15.3 C 23.7 C 4.5 km/h (1 Bft)
05.07.2006 11:00 26.1 C 51 % 1017.1 hPa 0.0 l/m 4.3 km/h (1 Bft) W-NW 1.00 h 0.0 UV-I 709 W/m 15.2 C 26.1 C 4.3 km/h (1 Bft)
05.07.2006 12:00 27.9 C 44 % 1015.9 hPa 0.0 l/m 4.6 km/h (1 Bft) S 1.00 h 0.0 UV-I 769 W/m 14.6 C 27.9 C 4.6 km/h (1 Bft)
05.07.2006 13:00 29.3 C 41 % 1015.2 hPa 0.0 l/m 2.6 km/h (1 Bft) O-SO 1.00 h 0.0 UV-I 776 W/m 14.5 C 29.3 C 2.6 km/h (1 Bft)
05.07.2006 14:00 30.8 C 34 % 1014.3 hPa 0.0 l/m 4.2 km/h (1 Bft) W 1.00 h 0.0 UV-I 774 W/m 13.0 C 30.8 C 4.2 km/h (1 Bft)
05.07.2006 15:00 31.9 C 33 % 1013.4 hPa 0.0 l/m 11.9 km/h (2 Bft) O-SO 1.00 h 0.0 UV-I 723 W/m 13.4 C 31.9 C 11.9 km/h (2 Bft)
05.07.2006 16:00 32.4 C 33 % 1012.7 hPa 0.0 l/m 13.3 km/h (3 Bft) O-SO 1.00 h 0.0 UV-I 633 W/m 14.2 C 32.4 C 13.3 km/h (3 Bft)
05.07.2006 17:00 31.6 C 34 % 1011.7 hPa 0.0 l/m 6.3 km/h (2 Bft) N-NO 0.33 h 0.0 UV-I 279 W/m 13.6 C 31.6 C 6.3 km/h (2 Bft)
05.07.2006 18:00 28.6 C 42 % 1012.9 hPa 0.0 l/m 12.0 km/h (2 Bft) W 0.00 h 0.0 UV-I 50 W/m 14.5 C 28.6 C 12.0 km/h (2 Bft)
05.07.2006 19:00 25.7 C 49 % 1015.1 hPa 0.0 l/m 43.5 km/h (6 Bft) W-NW 0.00 h 0.0 UV-I 7 W/m 13.7 C 25.7 C 43.5 km/h (6 Bft)
05.07.2006 20:00 19.9 C 78 % 1020.1 hPa 1.3 l/m 31.6 km/h (5 Bft) W 0.00 h 0.0 UV-I 1 W/m 15.8 C 19.9 C 31.6 km/h (5 Bft)
05.07.2006 21:00 17.4 C 91 % 1022.2 hPa 4.6 l/m 8.5 km/h (2 Bft) S-SW 0.00 h 0.0 UV-I 0 W/m 16.0 C 17.4 C 8.5 km/h (2 Bft)
05.07.2006 22:00 16.8 C 96 % 1021.3 hPa 2.9 l/m 1.8 km/h (1 Bft) O-SO 0.00 h 0.0 UV-I 0 W/m 16.3 C 16.8 C 1.8 km/h (1 Bft)
05.07.2006 23:00 16.8 C 96 % 1020.9 hPa 0.3 l/m 6.3 km/h (2 Bft) O-SO 0.00 h 0.0 UV-I 0 W/m 16.2 C 16.8 C 6.3 km/h (2 Bft)
06.07.2006 00:00 16.6 C 96 % 1020.4 hPa 0.0 l/m 0.4 km/h (0 Bft) SO 0.00 h 0.0 UV-I 0 W/m 16.0 C 16.6 C 0.4 km/h (0 Bft)
06.07.2006 01:00 16.2 C 98 % 1020.5 hPa 0.0 l/m 1.0 km/h (0 Bft) O-SO 0.00 h 0.0 UV-I 0 W/m 15.9 C 16.2 C 1.0 km/h (0 Bft)
06.07.2006 02:00 15.7 C 100 % 1019.5 hPa 0.0 l/m 0.4 km/h (0 Bft) O-SO 0.00 h 0.0 UV-I 0 W/m 15.7 C 15.7 C 0.4 km/h (0 Bft)
06.07.2006 03:00 15.4 C 98 % 1019.5 hPa 0.0 l/m 1.0 km/h (0 Bft) O-SO 0.00 h 0.0 UV-I 0 W/m 15.1 C 15.4 C 1.0 km/h (0 Bft)
06.07.2006 04:00 15.5 C 98 % 1018.8 hPa 0.0 l/m 1.7 km/h (1 Bft) O-SO 0.00 h 0.0 UV-I 0 W/m 15.1 C 15.5 C 1.7 km/h (1 Bft)
06.07.2006 05:00 15.5 C 98 % 1018.5 hPa 0.0 l/m 2.6 km/h (1 Bft) O-SO 0.00 h 0.0 UV-I 4 W/m 15.2 C 15.5 C 2.6 km/h (1 Bft)
06.07.2006 06:00 15.5 C 97 % 1018.5 hPa 0.0 l/m 0.9 km/h (0 Bft) O-SO 0.00 h 0.0 UV-I 25 W/m 15.1 C 15.5 C 0.9 km/h (0 Bft)
06.07.2006 07:00 15.7 C 96 % 1018.5 hPa 0.0 l/m 1.2 km/h (1 Bft) O-SO 0.00 h 0.0 UV-I 72 W/m 15.1 C 15.7 C 1.2 km/h (1 Bft)
06.07.2006 08:00 16.4 C 93 % 1019.2 hPa 0.0 l/m 0.4 km/h (0 Bft) O-SO 0.00 h 0.0 UV-I 131 W/m 15.2 C 16.4 C 0.4 km/h (0 Bft)
06.07.2006 09:00 17.5 C 86 % 1019.3 hPa 0.0 l/m 2.8 km/h (1 Bft) W 0.50 h 0.0 UV-I 342 W/m 15.2 C 17.5 C 2.8 km/h (1 Bft)
06.07.2006 10:00 18.5 C 82 % 1019.1 hPa 0.0 l/m 3.4 km/h (1 Bft) W 0.60 h 0.0 UV-I 447 W/m 15.3 C 18.5 C 3.4 km/h (1 Bft)
06.07.2006 11:00 20.9 C 69 % 1018.8 hPa 0.0 l/m 14.7 km/h (3 Bft) W 1.00 h 0.0 UV-I 752 W/m 14.9 C 20.9 C 14.7 km/h (3 Bft)
06.07.2006 12:00 22.4 C 62 % 1018.6 hPa 0.0 l/m 16.5 km/h (3 Bft) W-NW 0.63 h 0.0 UV-I 590 W/m 14.6 C 22.4 C 16.5 km/h (3 Bft)
06.07.2006 13:00 23.8 C 55 % 1017.5 hPa 0.0 l/m 14.0 km/h (3 Bft) W 0.87 h 0.0 UV-I 674 W/m 14.3 C 23.8 C 14.0 km/h (3 Bft)
06.07.2006 14:00 24.4 C 51 % 1017.4 hPa 0.0 l/m 14.1 km/h (3 Bft) W 0.83 h 0.0 UV-I 555 W/m 13.7 C 24.4 C 14.1 km/h (3 Bft)
06.07.2006 15:00 24.7 C 48 % 1017.3 hPa 0.0 l/m 18.5 km/h (3 Bft) W 0.63 h 0.0 UV-I 539 W/m 12.9 C 24.7 C 18.5 km/h (3 Bft)
06.07.2006 16:00 23.1 C 56 % 1017.5 hPa 0.0 l/m 9.9 km/h (2 Bft) SW 0.00 h 0.0 UV-I 278 W/m 13.8 C 23.1 C 9.9 km/h (2 Bft)
06.07.2006 17:00 22.1 C 56 % 1017.7 hPa 0.0 l/m 7.7 km/h (2 Bft) S-SW 0.00 h 0.0 UV-I 162 W/m 13.0 C 22.1 C 7.7 km/h (2 Bft)
06.07.2006 18:00 19.5 C 71 % 1017.4 hPa 0.0 l/m 11.4 km/h (2 Bft) S 0.00 h 0.0 UV-I 85 W/m 14.1 C 19.5 C 11.4 km/h (2 Bft)
06.07.2006 19:00 19.5 C 74 % 1017.2 hPa 0.0 l/m 5.0 km/h (1 Bft) SO 0.37 h 0.0 UV-I 128 W/m 14.8 C 19.5 C 5.0 km/h (1 Bft)
06.07.2006 20:00 20.6 C 70 % 1017.4 hPa 0.0 l/m 5.6 km/h (1 Bft) SO 0.80 h 0.0 UV-I 103 W/m 15.0 C 20.6 C 5.6 km/h (1 Bft)
06.07.2006 21:00 19.2 C 79 % 1018.0 hPa 0.0 l/m 0.7 km/h (0 Bft) O 0.00 h 0.0 UV-I 5 W/m 15.5 C 19.2 C 0.7 km/h (0 Bft)
06.07.2006 22:00 18.9 C 82 % 1018.1 hPa 0.0 l/m 0.4 km/h (0 Bft) O 0.00 h 0.0 UV-I 0 W/m 15.8 C 18.9 C 0.4 km/h (0 Bft)
06.07.2006 23:00 18.7 C 81 % 1018.1 hPa 0.0 l/m 5.0 km/h (1 Bft) S-SO 0.00 h 0.0 UV-I 0 W/m 15.3 C 18.7 C 5.0 km/h (1 Bft)
07.07.2006 00:00 18.3 C 84 % 1018.2 hPa 0.0 l/m 4.3 km/h (1 Bft) S-SO 0.00 h 0.0 UV-I 0 W/m 15.6 C 18.3 C 4.3 km/h (1 Bft)
07.07.2006 01:00 18.2 C 85 % 1018.2 hPa 0.0 l/m 0.8 km/h (0 Bft) O 0.00 h 0.0 UV-I 0 W/m 15.6 C 18.2 C 0.8 km/h (0 Bft)
07.07.2006 02:00 18.1 C 81 % 1018.2 hPa 0.0 l/m 2.8 km/h (1 Bft) W 0.00 h 0.0 UV-I 0 W/m 14.8 C 18.1 C 2.8 km/h (1 Bft)
07.07.2006 03:00 18.0 C 76 % 1018.2 hPa 0.0 l/m 7.3 km/h (2 Bft) W 0.00 h 0.0 UV-I 0 W/m 13.6 C 18.0 C 7.3 km/h (2 Bft)
07.07.2006 04:00 17.8 C 77 % 1018.2 hPa 0.0 l/m 5.1 km/h (1 Bft) W 0.00 h 0.0 UV-I 0 W/m 13.8 C 17.8 C 5.1 km/h (1 Bft)
07.07.2006 05:00 17.7 C 80 % 1018.2 hPa 0.0 l/m 6.7 km/h (2 Bft) W 0.00 h 0.0 UV-I 1 W/m 14.2 C 17.7 C 6.7 km/h (2 Bft)
07.07.2006 06:00 17.2 C 86 % 1018.3 hPa 1.3 l/m 7.0 km/h (2 Bft) W 0.00 h 0.0 UV-I 13 W/m 14.8 C 17.2 C 7.0 km/h (2 Bft)
07.07.2006 07:00 16.9 C 90 % 1018.6 hPa 0.0 l/m 1.9 km/h (1 Bft) S-SO 0.00 h 0.0 UV-I 42 W/m 15.3 C 16.9 C 1.9 km/h (1 Bft)
07.07.2006 08:00 17.3 C 90 % 1019.3 hPa 0.0 l/m 4.9 km/h (1 Bft) W 0.00 h 0.0 UV-I 101 W/m 15.5 C 17.3 C 4.9 km/h (1 Bft)
07.07.2006 09:00 18.0 C 85 % 1019.2 hPa 0.0 l/m 5.5 km/h (1 Bft) W 0.00 h 0.0 UV-I 163 W/m 15.4 C 18.0 C 5.5 km/h (1 Bft)
07.07.2006 10:00 18.5 C 80 % 1019.2 hPa 0.0 l/m 6.6 km/h (2 Bft) W 0.00 h 0.0 UV-I 179 W/m 14.9 C 18.5 C 6.6 km/h (2 Bft)
07.07.2006 11:00 19.0 C 76 % 1019.1 hPa 0.0 l/m 4.4 km/h (1 Bft) W 0.00 h 0.0 UV-I 225 W/m 14.7 C 19.0 C 4.4 km/h (1 Bft)
07.07.2006 12:00 19.6 C 73 % 1018.7 hPa 0.0 l/m 7.6 km/h (2 Bft) W 0.00 h 0.0 UV-I 243 W/m 14.6 C 19.6 C 7.6 km/h (2 Bft)
07.07.2006 13:00 20.4 C 68 % 1017.9 hPa 0.0 l/m 6.7 km/h (2 Bft) W-NW 0.00 h 0.0 UV-I 278 W/m 14.2 C 20.4 C 6.7 km/h (2 Bft)
07.07.2006 14:00 21.1 C 65 % 1017.8 hPa 0.0 l/m 10.0 km/h (2 Bft) W 0.00 h 0.0 UV-I 333 W/m 14.3 C 21.1 C 10.0 km/h (2 Bft)
07.07.2006 15:00 19.7 C 78 % 1018.0 hPa 0.3 l/m 10.8 km/h (2 Bft) S 0.00 h 0.0 UV-I 241 W/m 15.7 C 19.7 C 10.8 km/h (2 Bft)
07.07.2006 16:00 19.6 C 81 % 1018.1 hPa 0.0 l/m 10.8 km/h (2 Bft) S 0.23 h 0.0 UV-I 300 W/m 16.2 C 19.6 C 10.8 km/h (2 Bft)
07.07.2006 17:00 19.9 C 78 % 1018.1 hPa 0.0 l/m 4.1 km/h (1 Bft) S-SW 0.27 h 0.0 UV-I 225 W/m 15.9 C 19.9 C 4.1 km/h (1 Bft)
07.07.2006 18:00 21.0 C 73 % 1017.8 hPa 0.0 l/m 0.7 km/h (0 Bft) S 0.40 h 0.0 UV-I 213 W/m 15.9 C 21.0 C 0.7 km/h (0 Bft)
07.07.2006 19:00 20.7 C 71 % 1017.8 hPa 0.0 l/m 9.0 km/h (2 Bft) S 0.00 h 0.0 UV-I 103 W/m 15.1 C 20.7 C 9.0 km/h (2 Bft)
07.07.2006 20:00 19.5 C 75 % 1018.0 hPa 0.0 l/m 8.6 km/h (2 Bft) S 0.00 h 0.0 UV-I 24 W/m 14.9 C 19.5 C 8.6 km/h (2 Bft)
07.07.2006 21:00 19.0 C 76 % 1018.4 hPa 0.0 l/m 2.2 km/h (1 Bft) S 0.00 h 0.0 UV-I 6 W/m 14.7 C 19.0 C 2.2 km/h (1 Bft)
07.07.2006 22:00 18.5 C 80 % 1019.1 hPa 0.0 l/m 0.1 km/h (0 Bft) N 0.00 h 0.0 UV-I 0 W/m 15.0 C 18.5 C 0.1 km/h (0 Bft)
07.07.2006 23:00 18.1 C 83 % 1019.2 hPa 0.0 l/m 0.1 km/h (0 Bft) N 0.00 h 0.0 UV-I 0 W/m 15.2 C 18.1 C 0.1 km/h (0 Bft)
08.07.2006 00:00 17.7 C 86 % 1019.3 hPa 0.0 l/m 0.0 km/h (0 Bft) N 0.00 h 0.0 UV-I 0 W/m 15.2 C 17.7 C 0.0 km/h (0 Bft)
08.07.2006 01:00 16.9 C 92 % 1019.4 hPa 0.0 l/m 0.0 km/h (0 Bft) N 0.00 h 0.0 UV-I 0 W/m 15.6 C 16.9 C 0.0 km/h (0 Bft)
08.07.2006 02:00 16.4 C 96 % 1019.4 hPa 0.0 l/m 0.4 km/h (0 Bft) N 0.00 h 0.0 UV-I 0 W/m 15.7 C 16.4 C 0.4 km/h (0 Bft)
08.07.2006 03:00 16.1 C 96 % 1019.5 hPa 0.0 l/m 1.5 km/h (1 Bft) O-SO 0.00 h 0.0 UV-I 0 W/m 15.5 C 16.1 C 1.5 km/h (1 Bft)
08.07.2006 04:00 16.2 C 96 % 1019.5 hPa 0.0 l/m 0.0 km/h (0 Bft) N 0.00 h 0.0 UV-I 0 W/m 15.5 C 16.2 C 0.0 km/h (0 Bft)
08.07.2006 05:00 15.9 C 97 % 1019.5 hPa 0.0 l/m 0.0 km/h (0 Bft) N 0.00 h 0.0 UV-I 6 W/m 15.4 C 15.9 C 0.0 km/h (0 Bft)
08.07.2006 06:00 16.0 C 96 % 1019.5 hPa 0.0 l/m 0.0 km/h (0 Bft) N 0.00 h 0.0 UV-I 17 W/m 15.4 C 16.0 C 0.0 km/h (0 Bft)
08.07.2006 07:00 16.5 C 96 % 1019.4 hPa 0.0 l/m 0.6 km/h (0 Bft) O-SO 0.07 h 0.0 UV-I 77 W/m 15.9 C 16.5 C 0.6 km/h (0 Bft)
08.07.2006 08:00 18.3 C 87 % 1019.6 hPa 0.0 l/m 4.3 km/h (1 Bft) O-SO 0.87 h 0.0 UV-I 311 W/m 16.2 C 18.3 C 4.3 km/h (1 Bft)
08.07.2006 09:00 20.0 C 75 % 1020.0 hPa 0.0 l/m 2.8 km/h (1 Bft) SO 0.83 h 0.0 UV-I 354 W/m 15.3 C 20.0 C 2.8 km/h (1 Bft)
08.07.2006 10:00 21.3 C 66 % 1019.8 hPa 0.0 l/m 7.0 km/h (2 Bft) W-NW 0.53 h 0.0 UV-I 475 W/m 14.6 C 21.3 C 7.0 km/h (2 Bft)
08.07.2006 11:00 21.2 C 68 % 1019.9 hPa 0.0 l/m 4.9 km/h (1 Bft) NW 0.10 h 0.0 UV-I 222 W/m 15.0 C 21.2 C 4.9 km/h (1 Bft)
08.07.2006 12:00 21.3 C 72 % 1019.9 hPa 0.0 l/m 5.8 km/h (2 Bft) O-SO 0.23 h 0.0 UV-I 378 W/m 16.0 C 21.3 C 5.8 km/h (2 Bft)
08.07.2006 13:00 23.0 C 60 % 1019.0 hPa 0.0 l/m 8.4 km/h (2 Bft) N-NW 0.93 h 0.0 UV-I 773 W/m 14.7 C 23.0 C 8.4 km/h (2 Bft)
08.07.2006 14:00 24.3 C 55 % 1018.4 hPa 0.0 l/m 7.0 km/h (2 Bft) N-NW 0.83 h 0.0 UV-I 709 W/m 14.6 C 24.3 C 7.0 km/h (2 Bft)
08.07.2006 15:00 24.9 C 55 % 1018.3 hPa 0.0 l/m 5.8 km/h (2 Bft) O-SO 0.63 h 0.0 UV-I 578 W/m 15.3 C 24.9 C 5.8 km/h (2 Bft)
08.07.2006 16:00 25.2 C 53 % 1018.1 hPa 0.0 l/m 2.8 km/h (1 Bft) O-SO 0.28 h 0.0 UV-I 325 W/m 15.0 C 25.2 C 2.8 km/h (1 Bft)
08.07.2006 17:00 25.9 C 49 % 1017.2 hPa 0.0 l/m 2.4 km/h (1 Bft) O-SO 0.80 h 0.0 UV-I 438 W/m 14.4 C 25.9 C 2.4 km/h (1 Bft)
08.07.2006 18:00 25.9 C 46 % 1017.2 hPa 0.0 l/m 3.1 km/h (1 Bft) NW 0.50 h 0.0 UV-I 256 W/m 13.2 C 25.9 C 3.1 km/h (1 Bft)
08.07.2006 19:00 24.9 C 51 % 1017.3 hPa 0.0 l/m 3.6 km/h (1 Bft) N 0.62 h 0.0 UV-I 161 W/m 13.9 C 24.9 C 3.6 km/h (1 Bft)
08.07.2006 20:00 23.4 C 55 % 1017.5 hPa 0.0 l/m 1.2 km/h (1 Bft) O-NO 0.80 h 0.0 UV-I 69 W/m 14.0 C 23.4 C 1.2 km/h (1 Bft)
08.07.2006 21:00 21.1 C 65 % 1018.7 hPa 0.0 l/m 2.8 km/h (1 Bft) O-SO 0.13 h 0.0 UV-I 11 W/m 14.2 C 21.1 C 2.8 km/h (1 Bft)
08.07.2006 22:00 19.6 C 74 % 1019.0 hPa 0.0 l/m 0.0 km/h (0 Bft) N 0.00 h 0.0 UV-I 0 W/m 14.7 C 19.6 C 0.0 km/h (0 Bft)
08.07.2006 23:00 18.2 C 84 % 1019.3 hPa 0.0 l/m 0.1 km/h (0 Bft) N 0.00 h 0.0 UV-I 0 W/m 15.5 C 18.2 C 0.1 km/h (0 Bft)
09.07.2006 00:00 17.1 C 91 % 1019.4 hPa 0.0 l/m 0.0 km/h (0 Bft) N 0.00 h 0.0 UV-I 0 W/m 15.6 C 17.1 C 0.0 km/h (0 Bft)
09.07.2006 01:00 16.1 C 94 % 1019.5 hPa 0.0 l/m 0.1 km/h (0 Bft) O-SO 0.00 h 0.0 UV-I 0 W/m 15.2 C 16.1 C 0.1 km/h (0 Bft)
09.07.2006 02:00 15.7 C 95 % 1019.5 hPa 0.0 l/m 0.0 km/h (0 Bft) N 0.00 h 0.0 UV-I 0 W/m 14.9 C 15.7 C 0.0 km/h (0 Bft)
09.07.2006 03:00 15.3 C 97 % 1019.2 hPa 0.0 l/m 0.0 km/h (0 Bft) N 0.00 h 0.0 UV-I 0 W/m 14.7 C 15.3 C 0.0 km/h (0 Bft)
09.07.2006 04:00 14.6 C 99 % 1018.6 hPa 0.0 l/m 0.0 km/h (0 Bft) N 0.00 h 0.0 UV-I 0 W/m 14.4 C 14.6 C 0.0 km/h (0 Bft)
09.07.2006 05:00 14.3 C 98 % 1018.7 hPa 0.0 l/m 1.1 km/h (1 Bft) SO 0.03 h 0.0 UV-I 11 W/m 13.9 C 14.3 C 1.1 km/h (1 Bft)
09.07.2006 06:00 14.6 C 95 % 1019.6 hPa 0.0 l/m 1.1 km/h (1 Bft) O-SO 0.00 h 0.0 UV-I 43 W/m 13.8 C 14.6 C 1.1 km/h (1 Bft)
09.07.2006 07:00 15.5 C 95 % 1019.5 hPa 0.0 l/m 0.0 km/h (0 Bft) N 0.27 h 0.0 UV-I 125 W/m 14.6 C 15.5 C 0.0 km/h (0 Bft)
09.07.2006 08:00 16.8 C 91 % 1019.4 hPa 0.0 l/m 0.5 km/h (0 Bft) O-SO 1.00 h 0.0 UV-I 295 W/m 15.4 C 16.8 C 0.5 km/h (0 Bft)
09.07.2006 09:00 19.5 C 78 % 1019.0 hPa 0.0 l/m 1.8 km/h (1 Bft) W 0.90 h 0.0 UV-I 480 W/m 15.6 C 19.5 C 1.8 km/h (1 Bft)
09.07.2006 10:00 21.3 C 67 % 1018.8 hPa 0.0 l/m 1.4 km/h (1 Bft) NW 0.93 h 0.0 UV-I 464 W/m 14.9 C 21.3 C 1.4 km/h (1 Bft)
09.07.2006 11:00 23.4 C 59 % 1018.5 hPa 0.0 l/m 2.4 km/h (1 Bft) O-SO 0.97 h 0.0 UV-I 703 W/m 14.8 C 23.4 C 2.4 km/h (1 Bft)
09.07.2006 12:00 25.5 C 52 % 1018.3 hPa 0.0 l/m 7.8 km/h (2 Bft) O-SO 1.00 h 0.0 UV-I 642 W/m 15.0 C 25.5 C 7.8 km/h (2 Bft)
09.07.2006 13:00 26.6 C 45 % 1018.1 hPa 0.0 l/m 8.9 km/h (2 Bft) W 0.90 h 0.0 UV-I 693 W/m 13.7 C 26.6 C 8.9 km/h (2 Bft)
09.07.2006 14:00 27.6 C 38 % 1018.0 hPa 0.0 l/m 19.6 km/h (3 Bft) W 1.00 h 0.0 UV-I 712 W/m 11.8 C 27.6 C 19.6 km/h (3 Bft)
09.07.2006 15:00 27.8 C 38 % 1017.7 hPa 0.0 l/m 15.7 km/h (3 Bft) W-NW 0.87 h 0.0 UV-I 608 W/m 12.2 C 27.8 C 15.7 km/h (3 Bft)
09.07.2006 16:00 28.4 C 37 % 1016.9 hPa 0.0 l/m 17.2 km/h (3 Bft) W 0.90 h 0.0 UV-I 542 W/m 12.5 C 28.4 C 17.2 km/h (3 Bft)
09.07.2006 17:00 29.1 C 36 % 1016.8 hPa 0.0 l/m 13.3 km/h (3 Bft) W 0.77 h 0.0 UV-I 445 W/m 12.4 C 29.1 C 13.3 km/h (3 Bft)
09.07.2006 18:00 28.2 C 41 % 1017.0 hPa 0.0 l/m 6.1 km/h (2 Bft) W 0.73 h 0.0 UV-I 295 W/m 13.6 C 28.2 C 6.1 km/h (2 Bft)
09.07.2006 19:00 25.6 C 50 % 1018.3 hPa 0.0 l/m 2.9 km/h (1 Bft) SO 0.00 h 0.0 UV-I 77 W/m 14.3 C 25.6 C 2.9 km/h (1 Bft)
09.07.2006 20:00 24.2 C 58 % 1018.4 hPa 0.0 l/m 5.4 km/h (1 Bft) O-SO 0.17 h 0.0 UV-I 43 W/m 15.2 C 24.2 C 5.4 km/h (1 Bft)
09.07.2006 21:00 22.9 C 64 % 1019.4 hPa 0.0 l/m 5.0 km/h (1 Bft) O-SO 0.13 h 0.0 UV-I 14 W/m 15.6 C 22.9 C 5.0 km/h (1 Bft)
09.07.2006 22:00 22.1 C 67 % 1020.7 hPa 0.0 l/m 4.2 km/h (1 Bft) O-SO 0.00 h 0.0 UV-I 0 W/m 15.6 C 22.1 C 4.2 km/h (1 Bft)
09.07.2006 23:00 21.5 C 68 % 1021.6 hPa 0.0 l/m 5.1 km/h (1 Bft) O-SO 0.00 h 0.0 UV-I 0 W/m 15.2 C 21.5 C 5.1 km/h (1 Bft)
Min-Datum _ 03.07.06 04.07.06 05.07.06 - 03.07.06 - - - - 04.07.06 03.07.06 03.07.06
_ Min-Zeit 05:55 14:33 17:17 - 00:01 - - - - 14:33 05:55 00:01
Minimum _ 13.6 C 20 % 1011.2 hPa - 0.0 km/h (0 Bft) - - - - 5.7 C 13.6 C 0.0 km/h (0 Bft)
Max-Datum _ 04.07.06 06.07.06 05.07.06 05.07.06 05.07.06 - 08.07.06 03.07.06 08.07.06 05.07.06 04.07.06 05.07.06
_ Max-Zeit 16:45 00:39 21:41 21:03 19:51 - 16:01 00:01 13:01 20:05 16:45 19:51
Maximum _ 33.7 C 100 % 1022.5 hPa 4.6 l/m 56.6 km/h
W-NW (7 Bft)
- 0.05 h 0.0 UV-I 966 W/m 17.6 C 33.7 C 56.6 km/h
N (7 Bft)
Durchschnitt _ 21.3 C 69 % 1017.1 hPa #10.7 l/m 5.1 km/h (1 Bft) W #61:36 h 0.0 UV-I 334 W/m 14.4 C 21.3 C 5.1 km/h (1 Bft)
© Kaiko 2006